sensor_id;sensor_type;location;lat;lon;timestamp;temperature;humidity
12015;DHT22;6066;48.138;16.402;2023-11-21T00:00:06;6.40;99.90
12015;DHT22;6066;48.138;16.402;2023-11-21T00:02:37;6.40;99.90
12015;DHT22;6066;48.138;16.402;2023-11-21T00:05:05;6.40;99.90
12015;DHT22;6066;48.138;16.402;2023-11-21T00:07:33;6.30;99.90
12015;DHT22;6066;48.138;16.402;2023-11-21T00:10:00;6.30;99.90
12015;DHT22;6066;48.138;16.402;2023-11-21T00:12:28;6.40;99.90
12015;DHT22;6066;48.138;16.402;2023-11-21T00:14:56;6.40;99.90
12015;DHT22;6066;48.138;16.402;2023-11-21T00:17:23;6.30;99.90
12015;DHT22;6066;48.138;16.402;2023-11-21T00:19:50;6.30;99.90
12015;DHT22;6066;48.138;16.402;2023-11-21T00:22:17;6.20;99.90
12015;DHT22;6066;48.138;16.402;2023-11-21T00:24:44;6.10;99.90
12015;DHT22;6066;48.138;16.402;2023-11-21T00:27:11;6.00;99.90
12015;DHT22;6066;48.138;16.402;2023-11-21T00:29:37;5.90;99.90
12015;DHT22;6066;48.138;16.402;2023-11-21T00:32:06;5.80;99.90
12015;DHT22;6066;48.138;16.402;2023-11-21T00:34:33;5.80;99.90
12015;DHT22;6066;48.138;16.402;2023-11-21T00:37:00;5.70;99.90
12015;DHT22;6066;48.138;16.402;2023-11-21T00:39:28;5.60;99.90
12015;DHT22;6066;48.138;16.402;2023-11-21T00:41:54;5.60;99.90
12015;DHT22;6066;48.138;16.402;2023-11-21T00:44:21;5.50;99.90
12015;DHT22;6066;48.138;16.402;2023-11-21T00:46:48;5.40;99.90
12015;DHT22;6066;48.138;16.402;2023-11-21T00:49:17;5.40;99.90
12015;DHT22;6066;48.138;16.402;2023-11-21T00:51:44;5.40;99.90
12015;DHT22;6066;48.138;16.402;2023-11-21T00:54:10;5.40;99.90
12015;DHT22;6066;48.138;16.402;2023-11-21T00:56:37;5.30;99.90
12015;DHT22;6066;48.138;16.402;2023-11-21T00:59:05;5.30;99.90
12015;DHT22;6066;48.138;16.402;2023-11-21T01:01:32;5.30;99.90
12015;DHT22;6066;48.138;16.402;2023-11-21T01:03:59;5.20;99.90
12015;DHT22;6066;48.138;16.402;2023-11-21T01:06:27;5.20;99.90
12015;DHT22;6066;48.138;16.402;2023-11-21T01:08:55;5.20;99.90
12015;DHT22;6066;48.138;16.402;2023-11-21T01:11:22;5.20;99.90
12015;DHT22;6066;48.138;16.402;2023-11-21T01:13:48;5.10;99.90
12015;DHT22;6066;48.138;16.402;2023-11-21T01:16:15;5.10;99.90
12015;DHT22;6066;48.138;16.402;2023-11-21T01:18:42;5.10;99.90
12015;DHT22;6066;48.138;16.402;2023-11-21T01:21:09;5.10;99.90
12015;DHT22;6066;48.138;16.402;2023-11-21T01:23:37;5.10;99.90
12015;DHT22;6066;48.138;16.402;2023-11-21T01:26:03;5.10;99.90
12015;DHT22;6066;48.138;16.402;2023-11-21T01:28:30;5.10;99.90
12015;DHT22;6066;48.138;16.402;2023-11-21T01:30:57;5.00;99.90
12015;DHT22;6066;48.138;16.402;2023-11-21T01:33:24;5.00;99.90
12015;DHT22;6066;48.138;16.402;2023-11-21T01:35:51;5.10;99.90
12015;DHT22;6066;48.138;16.402;2023-11-21T01:38:20;5.10;99.90
12015;DHT22;6066;48.138;16.402;2023-11-21T01:40:48;5.10;99.90
12015;DHT22;6066;48.138;16.402;2023-11-21T01:43:15;5.10;99.90
12015;DHT22;6066;48.138;16.402;2023-11-21T01:45:42;5.10;99.90
12015;DHT22;6066;48.138;16.402;2023-11-21T01:48:10;5.00;99.90
12015;DHT22;6066;48.138;16.402;2023-11-21T01:50:38;5.00;99.90
12015;DHT22;6066;48.138;16.402;2023-11-21T01:53:07;5.00;99.90
12015;DHT22;6066;48.138;16.402;2023-11-21T01:55:35;5.00;99.90
12015;DHT22;6066;48.138;16.402;2023-11-21T01:58:03;5.00;99.90
12015;DHT22;6066;48.138;16.402;2023-11-21T02:00:31;5.00;99.90
12015;DHT22;6066;48.138;16.402;2023-11-21T02:02:58;5.10;99.90
12015;DHT22;6066;48.138;16.402;2023-11-21T02:05:25;5.10;99.90
12015;DHT22;6066;48.138;16.402;2023-11-21T02:07:52;5.10;99.90
12015;DHT22;6066;48.138;16.402;2023-11-21T02:10:19;5.20;99.90
12015;DHT22;6066;48.138;16.402;2023-11-21T02:12:48;5.20;99.90
12015;DHT22;6066;48.138;16.402;2023-11-21T02:15:16;5.30;99.90
12015;DHT22;6066;48.138;16.402;2023-11-21T02:17:45;5.30;99.90
12015;DHT22;6066;48.138;16.402;2023-11-21T02:20:12;5.30;99.90
12015;DHT22;6066;48.138;16.402;2023-11-21T02:22:41;5.30;99.90
12015;DHT22;6066;48.138;16.402;2023-11-21T02:25:09;5.30;99.90
12015;DHT22;6066;48.138;16.402;2023-11-21T02:27:36;5.30;99.90
12015;DHT22;6066;48.138;16.402;2023-11-21T02:30:03;5.40;99.90
12015;DHT22;6066;48.138;16.402;2023-11-21T02:32:33;5.50;99.90
12015;DHT22;6066;48.138;16.402;2023-11-21T02:34:59;5.50;99.90
12015;DHT22;6066;48.138;16.402;2023-11-21T02:37:28;5.60;99.90
12015;DHT22;6066;48.138;16.402;2023-11-21T02:39:55;5.80;99.90
12015;DHT22;6066;48.138;16.402;2023-11-21T02:42:23;6.00;99.90
12015;DHT22;6066;48.138;16.402;2023-11-21T02:44:50;6.20;99.90
12015;DHT22;6066;48.138;16.402;2023-11-21T02:47:17;6.40;99.90
12015;DHT22;6066;48.138;16.402;2023-11-21T02:49:44;6.60;99.90
12015;DHT22;6066;48.138;16.402;2023-11-21T02:52:10;6.80;99.90
12015;DHT22;6066;48.138;16.402;2023-11-21T02:54:37;7.00;99.90
12015;DHT22;6066;48.138;16.402;2023-11-21T02:57:04;7.20;99.90
12015;DHT22;6066;48.138;16.402;2023-11-21T02:59:32;7.40;99.90
12015;DHT22;6066;48.138;16.402;2023-11-21T03:01:59;7.50;99.90
12015;DHT22;6066;48.138;16.402;2023-11-21T03:04:26;7.60;99.90
12015;DHT22;6066;48.138;16.402;2023-11-21T03:06:52;7.70;99.90
12015;DHT22;6066;48.138;16.402;2023-11-21T03:09:19;7.80;99.90
12015;DHT22;6066;48.138;16.402;2023-11-21T03:11:46;7.90;99.90
12015;DHT22;6066;48.138;16.402;2023-11-21T03:14:13;8.00;99.90
12015;DHT22;6066;48.138;16.402;2023-11-21T03:16:41;8.10;99.90
12015;DHT22;6066;48.138;16.402;2023-11-21T03:19:09;8.10;99.90
12015;DHT22;6066;48.138;16.402;2023-11-21T03:21:36;8.20;99.90
12015;DHT22;6066;48.138;16.402;2023-11-21T03:24:03;8.20;99.90
12015;DHT22;6066;48.138;16.402;2023-11-21T03:26:30;8.20;99.90
12015;DHT22;6066;48.138;16.402;2023-11-21T03:28:56;8.20;99.90
12015;DHT22;6066;48.138;16.402;2023-11-21T03:31:23;8.20;99.90
12015;DHT22;6066;48.138;16.402;2023-11-21T03:33:51;8.20;99.90
12015;DHT22;6066;48.138;16.402;2023-11-21T03:36:19;8.30;99.90
12015;DHT22;6066;48.138;16.402;2023-11-21T03:38:45;8.30;99.90
12015;DHT22;6066;48.138;16.402;2023-11-21T03:41:12;8.30;99.90
12015;DHT22;6066;48.138;16.402;2023-11-21T03:43:40;8.30;99.90
12015;DHT22;6066;48.138;16.402;2023-11-21T03:46:06;8.30;99.90
12015;DHT22;6066;48.138;16.402;2023-11-21T03:48:33;8.20;99.90
12015;DHT22;6066;48.138;16.402;2023-11-21T03:51:02;8.20;99.90
12015;DHT22;6066;48.138;16.402;2023-11-21T03:53:29;8.20;99.90
12015;DHT22;6066;48.138;16.402;2023-11-21T03:55:55;8.20;99.90
12015;DHT22;6066;48.138;16.402;2023-11-21T03:58:22;8.20;99.90
12015;DHT22;6066;48.138;16.402;2023-11-21T04:00:49;8.10;99.90
12015;DHT22;6066;48.138;16.402;2023-11-21T04:03:15;8.10;99.90
12015;DHT22;6066;48.138;16.402;2023-11-21T04:05:42;8.00;99.90
12015;DHT22;6066;48.138;16.402;2023-11-21T04:08:10;8.00;99.90
12015;DHT22;6066;48.138;16.402;2023-11-21T04:10:37;7.90;99.90
12015;DHT22;6066;48.138;16.402;2023-11-21T04:13:05;7.90;99.90
12015;DHT22;6066;48.138;16.402;2023-11-21T04:15:32;7.90;99.90
12015;DHT22;6066;48.138;16.402;2023-11-21T04:17:58;7.90;99.90
12015;DHT22;6066;48.138;16.402;2023-11-21T04:20:25;7.80;99.90
12015;DHT22;6066;48.138;16.402;2023-11-21T04:22:52;7.70;99.90
12015;DHT22;6066;48.138;16.402;2023-11-21T04:25:20;7.60;99.90
12015;DHT22;6066;48.138;16.402;2023-11-21T04:27:48;7.60;99.90
12015;DHT22;6066;48.138;16.402;2023-11-21T04:30:15;7.40;99.90
12015;DHT22;6066;48.138;16.402;2023-11-21T04:32:42;7.30;99.90
12015;DHT22;6066;48.138;16.402;2023-11-21T04:35:09;7.20;99.90
12015;DHT22;6066;48.138;16.402;2023-11-21T04:37:35;7.10;99.90
12015;DHT22;6066;48.138;16.402;2023-11-21T04:40:02;7.00;99.90
12015;DHT22;6066;48.138;16.402;2023-11-21T04:42:34;6.90;99.90
12015;DHT22;6066;48.138;16.402;2023-11-21T04:45:01;6.80;99.90
12015;DHT22;6066;48.138;16.402;2023-11-21T04:47:32;6.70;99.90
12015;DHT22;6066;48.138;16.402;2023-11-21T04:49:59;6.60;99.90
12015;DHT22;6066;48.138;16.402;2023-11-21T04:52:26;6.60;99.90
12015;DHT22;6066;48.138;16.402;2023-11-21T04:54:53;6.60;99.90
12015;DHT22;6066;48.138;16.402;2023-11-21T04:57:20;6.70;99.90
12015;DHT22;6066;48.138;16.402;2023-11-21T04:59:48;6.60;99.90
12015;DHT22;6066;48.138;16.402;2023-11-21T05:02:15;6.50;99.90
12015;DHT22;6066;48.138;16.402;2023-11-21T05:04:43;6.40;99.90
12015;DHT22;6066;48.138;16.402;2023-11-21T05:07:10;6.30;99.90
12015;DHT22;6066;48.138;16.402;2023-11-21T05:09:40;6.20;99.90
12015;DHT22;6066;48.138;16.402;2023-11-21T05:12:09;6.10;99.90
12015;DHT22;6066;48.138;16.402;2023-11-21T05:14:36;6.00;99.90
12015;DHT22;6066;48.138;16.402;2023-11-21T05:17:04;5.90;99.90
12015;DHT22;6066;48.138;16.402;2023-11-21T05:19:31;5.90;99.90
12015;DHT22;6066;48.138;16.402;2023-11-21T05:21:58;5.80;99.90
12015;DHT22;6066;48.138;16.402;2023-11-21T05:24:25;5.70;99.90
12015;DHT22;6066;48.138;16.402;2023-11-21T05:26:52;5.70;99.90
12015;DHT22;6066;48.138;16.402;2023-11-21T05:29:19;5.60;99.90
12015;DHT22;6066;48.138;16.402;2023-11-21T05:31:46;5.50;99.90
12015;DHT22;6066;48.138;16.402;2023-11-21T05:34:14;5.50;99.90
12015;DHT22;6066;48.138;16.402;2023-11-21T05:36:42;5.40;99.90
12015;DHT22;6066;48.138;16.402;2023-11-21T05:39:09;5.40;99.90
12015;DHT22;6066;48.138;16.402;2023-11-21T05:41:36;5.30;99.90
12015;DHT22;6066;48.138;16.402;2023-11-21T05:44:03;5.30;99.90
12015;DHT22;6066;48.138;16.402;2023-11-21T05:46:30;5.30;99.90
12015;DHT22;6066;48.138;16.402;2023-11-21T05:48:57;5.20;99.90
12015;DHT22;6066;48.138;16.402;2023-11-21T05:51:25;5.20;99.90
12015;DHT22;6066;48.138;16.402;2023-11-21T05:53:52;5.10;99.90
12015;DHT22;6066;48.138;16.402;2023-11-21T05:56:19;5.10;99.90
12015;DHT22;6066;48.138;16.402;2023-11-21T05:58:45;5.10;99.90
12015;DHT22;6066;48.138;16.402;2023-11-21T06:01:12;5.10;99.90
12015;DHT22;6066;48.138;16.402;2023-11-21T06:03:39;5.00;99.90
12015;DHT22;6066;48.138;16.402;2023-11-21T06:06:06;5.00;99.90
12015;DHT22;6066;48.138;16.402;2023-11-21T06:08:34;5.00;99.90
12015;DHT22;6066;48.138;16.402;2023-11-21T06:11:01;4.90;99.90
12015;DHT22;6066;48.138;16.402;2023-11-21T06:13:28;4.90;99.90
12015;DHT22;6066;48.138;16.402;2023-11-21T06:15:55;4.90;99.90
12015;DHT22;6066;48.138;16.402;2023-11-21T06:18:22;4.90;99.90
12015;DHT22;6066;48.138;16.402;2023-11-21T06:20:49;5.00;99.90
12015;DHT22;6066;48.138;16.402;2023-11-21T06:23:17;4.90;99.90
12015;DHT22;6066;48.138;16.402;2023-11-21T06:25:45;4.90;99.90
12015;DHT22;6066;48.138;16.402;2023-11-21T06:28:12;5.00;99.90
12015;DHT22;6066;48.138;16.402;2023-11-21T06:30:42;5.00;99.90
12015;DHT22;6066;48.138;16.402;2023-11-21T06:33:09;5.00;99.90
12015;DHT22;6066;48.138;16.402;2023-11-21T06:35:36;5.10;99.90
12015;DHT22;6066;48.138;16.402;2023-11-21T06:38:03;5.10;99.90
12015;DHT22;6066;48.138;16.402;2023-11-21T06:40:30;5.20;99.90
12015;DHT22;6066;48.138;16.402;2023-11-21T06:43:00;5.30;99.90
12015;DHT22;6066;48.138;16.402;2023-11-21T06:45:27;5.30;99.90
12015;DHT22;6066;48.138;16.402;2023-11-21T06:47:54;5.40;99.90
12015;DHT22;6066;48.138;16.402;2023-11-21T06:50:20;5.50;99.90
12015;DHT22;6066;48.138;16.402;2023-11-21T06:52:47;5.50;99.90
12015;DHT22;6066;48.138;16.402;2023-11-21T06:55:14;5.60;99.90
12015;DHT22;6066;48.138;16.402;2023-11-21T06:57:41;5.70;99.90
12015;DHT22;6066;48.138;16.402;2023-11-21T07:00:10;5.70;99.90
12015;DHT22;6066;48.138;16.402;2023-11-21T07:02:37;5.80;99.90
12015;DHT22;6066;48.138;16.402;2023-11-21T07:05:05;5.80;99.90
12015;DHT22;6066;48.138;16.402;2023-11-21T07:07:32;5.90;99.90
12015;DHT22;6066;48.138;16.402;2023-11-21T07:10:00;6.00;99.90
12015;DHT22;6066;48.138;16.402;2023-11-21T07:12:28;6.00;99.90
12015;DHT22;6066;48.138;16.402;2023-11-21T07:14:55;6.10;99.90
12015;DHT22;6066;48.138;16.402;2023-11-21T07:17:23;6.10;99.90
12015;DHT22;6066;48.138;16.402;2023-11-21T07:19:50;6.10;99.90
12015;DHT22;6066;48.138;16.402;2023-11-21T07:22:17;6.10;99.90
12015;DHT22;6066;48.138;16.402;2023-11-21T07:24:47;6.20;99.90
12015;DHT22;6066;48.138;16.402;2023-11-21T07:27:14;6.20;99.90
12015;DHT22;6066;48.138;16.402;2023-11-21T07:29:41;6.30;99.90
12015;DHT22;6066;48.138;16.402;2023-11-21T07:32:08;6.30;99.90
12015;DHT22;6066;48.138;16.402;2023-11-21T07:34:36;6.30;99.90
12015;DHT22;6066;48.138;16.402;2023-11-21T07:37:03;6.40;99.90
12015;DHT22;6066;48.138;16.402;2023-11-21T07:39:30;6.50;99.90
12015;DHT22;6066;48.138;16.402;2023-11-21T07:41:56;6.50;99.90
12015;DHT22;6066;48.138;16.402;2023-11-21T07:44:23;6.60;99.90
12015;DHT22;6066;48.138;16.402;2023-11-21T07:46:50;6.60;99.90
12015;DHT22;6066;48.138;16.402;2023-11-21T07:49:17;6.70;99.90
12015;DHT22;6066;48.138;16.402;2023-11-21T07:51:47;6.70;99.90
12015;DHT22;6066;48.138;16.402;2023-11-21T07:54:14;6.80;99.90
12015;DHT22;6066;48.138;16.402;2023-11-21T07:56:41;6.90;99.90
12015;DHT22;6066;48.138;16.402;2023-11-21T07:59:08;7.00;99.90
12015;DHT22;6066;48.138;16.402;2023-11-21T08:01:34;7.10;99.90
12015;DHT22;6066;48.138;16.402;2023-11-21T08:04:01;7.10;99.90
12015;DHT22;6066;48.138;16.402;2023-11-21T08:06:28;7.20;99.90
12015;DHT22;6066;48.138;16.402;2023-11-21T08:08:57;7.30;99.90
12015;DHT22;6066;48.138;16.402;2023-11-21T08:11:24;7.40;99.90
12015;DHT22;6066;48.138;16.402;2023-11-21T08:13:51;7.50;99.90
12015;DHT22;6066;48.138;16.402;2023-11-21T08:16:18;7.60;99.90
12015;DHT22;6066;48.138;16.402;2023-11-21T08:18:45;7.70;99.90
12015;DHT22;6066;48.138;16.402;2023-11-21T08:21:12;7.80;99.90
12015;DHT22;6066;48.138;16.402;2023-11-21T08:23:39;7.90;99.90
12015;DHT22;6066;48.138;16.402;2023-11-21T08:26:07;8.10;99.90
12015;DHT22;6066;48.138;16.402;2023-11-21T08:28:34;8.10;99.90
12015;DHT22;6066;48.138;16.402;2023-11-21T08:31:01;8.30;99.90
12015;DHT22;6066;48.138;16.402;2023-11-21T08:33:27;8.40;99.90
12015;DHT22;6066;48.138;16.402;2023-11-21T08:35:54;8.50;99.90
12015;DHT22;6066;48.138;16.402;2023-11-21T08:38:21;8.60;99.90
12015;DHT22;6066;48.138;16.402;2023-11-21T08:40:47;8.60;99.90
12015;DHT22;6066;48.138;16.402;2023-11-21T08:43:15;8.70;99.90
12015;DHT22;6066;48.138;16.402;2023-11-21T08:45:45;8.70;99.90
12015;DHT22;6066;48.138;16.402;2023-11-21T08:48:12;8.90;99.90
12015;DHT22;6066;48.138;16.402;2023-11-21T08:50:41;9.00;99.90
12015;DHT22;6066;48.138;16.402;2023-11-21T08:53:07;9.10;99.90
12015;DHT22;6066;48.138;16.402;2023-11-21T08:55:36;9.40;99.90
12015;DHT22;6066;48.138;16.402;2023-11-21T08:58:03;9.50;99.90
12015;DHT22;6066;48.138;16.402;2023-11-21T09:00:33;9.70;99.90
12015;DHT22;6066;48.138;16.402;2023-11-21T09:03:00;9.90;99.90
12015;DHT22;6066;48.138;16.402;2023-11-21T09:05:28;10.00;99.90
12015;DHT22;6066;48.138;16.402;2023-11-21T09:07:55;10.10;99.90
12015;DHT22;6066;48.138;16.402;2023-11-21T09:10:22;10.10;99.90
12015;DHT22;6066;48.138;16.402;2023-11-21T09:12:50;10.10;99.90
12015;DHT22;6066;48.138;16.402;2023-11-21T09:15:18;10.10;99.90
12015;DHT22;6066;48.138;16.402;2023-11-21T09:17:47;10.00;99.90
12015;DHT22;6066;48.138;16.402;2023-11-21T09:20:14;10.00;99.90
12015;DHT22;6066;48.138;16.402;2023-11-21T09:22:41;10.00;99.90
12015;DHT22;6066;48.138;16.402;2023-11-21T09:25:10;10.00;99.90
12015;DHT22;6066;48.138;16.402;2023-11-21T09:27:37;10.00;99.90
12015;DHT22;6066;48.138;16.402;2023-11-21T09:30:04;10.00;99.90
12015;DHT22;6066;48.138;16.402;2023-11-21T09:32:31;10.00;99.90
12015;DHT22;6066;48.138;16.402;2023-11-21T09:34:59;10.00;99.90
12015;DHT22;6066;48.138;16.402;2023-11-21T09:37:27;10.10;99.90
12015;DHT22;6066;48.138;16.402;2023-11-21T09:39:54;10.10;99.90
12015;DHT22;6066;48.138;16.402;2023-11-21T09:42:22;10.20;99.90
12015;DHT22;6066;48.138;16.402;2023-11-21T09:44:51;10.20;99.90
12015;DHT22;6066;48.138;16.402;2023-11-21T09:47:21;10.30;99.90
12015;DHT22;6066;48.138;16.402;2023-11-21T09:49:49;10.30;99.90
12015;DHT22;6066;48.138;16.402;2023-11-21T09:52:18;10.40;99.90
12015;DHT22;6066;48.138;16.402;2023-11-21T09:54:48;10.50;99.90
12015;DHT22;6066;48.138;16.402;2023-11-21T09:57:15;10.50;99.90
12015;DHT22;6066;48.138;16.402;2023-11-21T09:59:43;10.60;99.90
12015;DHT22;6066;48.138;16.402;2023-11-21T10:02:11;10.60;99.90
12015;DHT22;6066;48.138;16.402;2023-11-21T10:04:39;10.70;99.90
12015;DHT22;6066;48.138;16.402;2023-11-21T10:07:07;10.80;99.90
12015;DHT22;6066;48.138;16.402;2023-11-21T10:09:36;10.90;99.90
12015;DHT22;6066;48.138;16.402;2023-11-21T10:12:04;10.90;99.90
12015;DHT22;6066;48.138;16.402;2023-11-21T10:14:34;11.00;99.90
12015;DHT22;6066;48.138;16.402;2023-11-21T10:17:02;11.00;99.90
12015;DHT22;6066;48.138;16.402;2023-11-21T10:19:29;11.10;99.90
12015;DHT22;6066;48.138;16.402;2023-11-21T10:21:55;11.20;99.90
12015;DHT22;6066;48.138;16.402;2023-11-21T10:24:25;11.40;99.90
12015;DHT22;6066;48.138;16.402;2023-11-21T10:26:53;11.50;99.90
12015;DHT22;6066;48.138;16.402;2023-11-21T10:29:20;11.60;99.90
12015;DHT22;6066;48.138;16.402;2023-11-21T10:31:48;11.60;99.90
12015;DHT22;6066;48.138;16.402;2023-11-21T10:34:16;11.60;99.90
12015;DHT22;6066;48.138;16.402;2023-11-21T10:36:43;11.60;99.90
12015;DHT22;6066;48.138;16.402;2023-11-21T10:39:13;11.70;99.90
12015;DHT22;6066;48.138;16.402;2023-11-21T10:41:43;11.80;99.90
12015;DHT22;6066;48.138;16.402;2023-11-21T10:44:12;12.00;99.90
12015;DHT22;6066;48.138;16.402;2023-11-21T10:46:40;12.10;99.90
12015;DHT22;6066;48.138;16.402;2023-11-21T10:49:09;12.30;99.90
12015;DHT22;6066;48.138;16.402;2023-11-21T10:51:36;12.40;99.90
12015;DHT22;6066;48.138;16.402;2023-11-21T10:54:04;12.50;99.90
12015;DHT22;6066;48.138;16.402;2023-11-21T10:56:30;12.60;99.90
12015;DHT22;6066;48.138;16.402;2023-11-21T10:59:00;12.70;99.90
12015;DHT22;6066;48.138;16.402;2023-11-21T11:01:29;12.70;99.90
12015;DHT22;6066;48.138;16.402;2023-11-21T11:03:56;12.60;99.90
12015;DHT22;6066;48.138;16.402;2023-11-21T11:06:23;12.40;99.90
12015;DHT22;6066;48.138;16.402;2023-11-21T11:08:52;12.20;99.90
12015;DHT22;6066;48.138;16.402;2023-11-21T11:11:20;12.00;99.90
12015;DHT22;6066;48.138;16.402;2023-11-21T11:13:47;11.90;99.90
12015;DHT22;6066;48.138;16.402;2023-11-21T11:16:14;11.80;99.90
12015;DHT22;6066;48.138;16.402;2023-11-21T11:18:44;11.70;99.90
12015;DHT22;6066;48.138;16.402;2023-11-21T11:21:16;11.60;99.90
12015;DHT22;6066;48.138;16.402;2023-11-21T11:23:51;11.60;99.90
12015;DHT22;6066;48.138;16.402;2023-11-21T11:26:24;11.80;99.90
12015;DHT22;6066;48.138;16.402;2023-11-21T11:28:57;12.00;99.90
12015;DHT22;6066;48.138;16.402;2023-11-21T11:31:31;12.20;99.90
12015;DHT22;6066;48.138;16.402;2023-11-21T11:34:06;12.30;99.90
12015;DHT22;6066;48.138;16.402;2023-11-21T11:36:35;12.30;99.90
12015;DHT22;6066;48.138;16.402;2023-11-21T11:39:03;12.30;99.90
12015;DHT22;6066;48.138;16.402;2023-11-21T11:41:31;12.30;99.90
12015;DHT22;6066;48.138;16.402;2023-11-21T11:44:00;12.20;99.90
12015;DHT22;6066;48.138;16.402;2023-11-21T11:46:39;12.10;99.90
12015;DHT22;6066;48.138;16.402;2023-11-21T11:49:09;12.00;99.90
12015;DHT22;6066;48.138;16.402;2023-11-21T11:51:41;11.80;99.90
12015;DHT22;6066;48.138;16.402;2023-11-21T11:54:07;11.80;99.90
12015;DHT22;6066;48.138;16.402;2023-11-21T11:56:34;11.70;99.90
12015;DHT22;6066;48.138;16.402;2023-11-21T11:59:03;11.80;99.90
12015;DHT22;6066;48.138;16.402;2023-11-21T12:01:30;11.80;99.90
12015;DHT22;6066;48.138;16.402;2023-11-21T12:06:46;11.80;99.90
12015;DHT22;6066;48.138;16.402;2023-11-21T12:09:17;11.80;99.90
12015;DHT22;6066;48.138;16.402;2023-11-21T12:11:44;11.60;99.90
12015;DHT22;6066;48.138;16.402;2023-11-21T12:14:11;11.50;99.90
12015;DHT22;6066;48.138;16.402;2023-11-21T12:16:39;11.40;99.90
12015;DHT22;6066;48.138;16.402;2023-11-21T12:19:06;11.30;99.90
12015;DHT22;6066;48.138;16.402;2023-11-21T12:21:34;11.20;99.90
12015;DHT22;6066;48.138;16.402;2023-11-21T12:24:04;11.10;99.90
12015;DHT22;6066;48.138;16.402;2023-11-21T12:26:34;11.00;99.90
12015;DHT22;6066;48.138;16.402;2023-11-21T12:29:00;10.90;99.90
12015;DHT22;6066;48.138;16.402;2023-11-21T12:31:29;10.80;99.90
12015;DHT22;6066;48.138;16.402;2023-11-21T12:33:56;10.80;99.90
12015;DHT22;6066;48.138;16.402;2023-11-21T12:36:23;10.80;99.90
12015;DHT22;6066;48.138;16.402;2023-11-21T12:38:50;10.70;99.90
12015;DHT22;6066;48.138;16.402;2023-11-21T12:41:19;10.70;99.90
12015;DHT22;6066;48.138;16.402;2023-11-21T12:43:46;10.60;99.90
12015;DHT22;6066;48.138;16.402;2023-11-21T12:46:13;10.60;99.90
12015;DHT22;6066;48.138;16.402;2023-11-21T12:48:42;10.50;99.90
12015;DHT22;6066;48.138;16.402;2023-11-21T12:51:10;10.60;99.90
12015;DHT22;6066;48.138;16.402;2023-11-21T12:53:39;10.60;99.90
12015;DHT22;6066;48.138;16.402;2023-11-21T12:56:06;10.50;99.90
12015;DHT22;6066;48.138;16.402;2023-11-21T12:58:36;10.50;99.90
12015;DHT22;6066;48.138;16.402;2023-11-21T13:01:05;10.40;99.90
12015;DHT22;6066;48.138;16.402;2023-11-21T13:03:37;10.40;99.90
12015;DHT22;6066;48.138;16.402;2023-11-21T13:06:04;10.40;99.90
12015;DHT22;6066;48.138;16.402;2023-11-21T13:08:33;10.40;99.90
12015;DHT22;6066;48.138;16.402;2023-11-21T13:10:59;10.40;99.90
12015;DHT22;6066;48.138;16.402;2023-11-21T13:13:28;10.50;99.90
12015;DHT22;6066;48.138;16.402;2023-11-21T13:15:57;10.40;99.90
12015;DHT22;6066;48.138;16.402;2023-11-21T13:18:26;10.40;99.90
12015;DHT22;6066;48.138;16.402;2023-11-21T13:20:53;10.50;99.90
12015;DHT22;6066;48.138;16.402;2023-11-21T13:23:20;10.50;99.90
12015;DHT22;6066;48.138;16.402;2023-11-21T13:25:48;10.50;99.90
12015;DHT22;6066;48.138;16.402;2023-11-21T13:28:15;10.40;99.90
12015;DHT22;6066;48.138;16.402;2023-11-21T13:30:43;10.40;99.90
12015;DHT22;6066;48.138;16.402;2023-11-21T13:33:11;10.40;99.90
12015;DHT22;6066;48.138;16.402;2023-11-21T13:35:43;10.30;99.90
12015;DHT22;6066;48.138;16.402;2023-11-21T13:38:13;10.30;99.90
12015;DHT22;6066;48.138;16.402;2023-11-21T13:40:46;10.20;99.90
12015;DHT22;6066;48.138;16.402;2023-11-21T13:43:15;10.20;99.90
12015;DHT22;6066;48.138;16.402;2023-11-21T13:45:44;10.10;99.90
12015;DHT22;6066;48.138;16.402;2023-11-21T13:48:13;10.10;99.90
12015;DHT22;6066;48.138;16.402;2023-11-21T13:50:40;10.00;99.90
12015;DHT22;6066;48.138;16.402;2023-11-21T13:53:13;9.90;99.90
12015;DHT22;6066;48.138;16.402;2023-11-21T13:55:47;9.90;99.90
12015;DHT22;6066;48.138;16.402;2023-11-21T13:58:14;9.80;99.90
12015;DHT22;6066;48.138;16.402;2023-11-21T14:00:47;9.80;99.90
12015;DHT22;6066;48.138;16.402;2023-11-21T14:03:23;9.70;99.90
12015;DHT22;6066;48.138;16.402;2023-11-21T14:05:58;9.70;99.90
12015;DHT22;6066;48.138;16.402;2023-11-21T14:08:26;9.60;99.90
12015;DHT22;6066;48.138;16.402;2023-11-21T14:10:53;9.60;99.90
12015;DHT22;6066;48.138;16.402;2023-11-21T14:13:22;9.60;99.90
12015;DHT22;6066;48.138;16.402;2023-11-21T14:15:50;9.60;99.90
12015;DHT22;6066;48.138;16.402;2023-11-21T14:18:24;9.50;99.90
12015;DHT22;6066;48.138;16.402;2023-11-21T14:20:55;9.50;99.90
12015;DHT22;6066;48.138;16.402;2023-11-21T14:23:22;9.50;99.90
12015;DHT22;6066;48.138;16.402;2023-11-21T14:25:49;9.50;99.90
12015;DHT22;6066;48.138;16.402;2023-11-21T14:28:17;9.50;99.90
12015;DHT22;6066;48.138;16.402;2023-11-21T14:30:44;9.50;99.90
12015;DHT22;6066;48.138;16.402;2023-11-21T14:33:11;9.50;99.90
12015;DHT22;6066;48.138;16.402;2023-11-21T14:35:40;9.50;99.90
12015;DHT22;6066;48.138;16.402;2023-11-21T14:38:06;9.50;99.90
12015;DHT22;6066;48.138;16.402;2023-11-21T14:40:35;9.60;99.90
12015;DHT22;6066;48.138;16.402;2023-11-21T14:43:02;9.60;99.90
12015;DHT22;6066;48.138;16.402;2023-11-21T14:45:31;9.60;99.90
12015;DHT22;6066;48.138;16.402;2023-11-21T14:47:58;9.60;99.90
12015;DHT22;6066;48.138;16.402;2023-11-21T14:50:31;9.50;99.90
12015;DHT22;6066;48.138;16.402;2023-11-21T14:53:11;9.50;99.90
12015;DHT22;6066;48.138;16.402;2023-11-21T14:55:39;9.50;99.90
12015;DHT22;6066;48.138;16.402;2023-11-21T14:58:18;9.40;99.90
12015;DHT22;6066;48.138;16.402;2023-11-21T15:00:52;9.40;99.90
12015;DHT22;6066;48.138;16.402;2023-11-21T15:03:23;9.30;99.90
12015;DHT22;6066;48.138;16.402;2023-11-21T15:06:09;9.30;99.90
12015;DHT22;6066;48.138;16.402;2023-11-21T15:08:54;9.30;99.90
12015;DHT22;6066;48.138;16.402;2023-11-21T15:11:39;9.20;99.90
12015;DHT22;6066;48.138;16.402;2023-11-21T15:14:06;9.20;99.90
12015;DHT22;6066;48.138;16.402;2023-11-21T15:16:34;9.10;99.90
12015;DHT22;6066;48.138;16.402;2023-11-21T15:19:05;9.10;99.90
12015;DHT22;6066;48.138;16.402;2023-11-21T15:21:32;9.10;99.90
12015;DHT22;6066;48.138;16.402;2023-11-21T15:24:00;9.00;99.90
12015;DHT22;6066;48.138;16.402;2023-11-21T15:26:27;9.00;99.90
12015;DHT22;6066;48.138;16.402;2023-11-21T15:28:55;8.90;99.90
12015;DHT22;6066;48.138;16.402;2023-11-21T15:31:22;8.90;99.90
12015;DHT22;6066;48.138;16.402;2023-11-21T15:33:52;8.90;99.90
12015;DHT22;6066;48.138;16.402;2023-11-21T15:36:19;8.90;99.90
12015;DHT22;6066;48.138;16.402;2023-11-21T15:38:46;8.90;99.90
12015;DHT22;6066;48.138;16.402;2023-11-21T15:41:14;8.80;99.90
12015;DHT22;6066;48.138;16.402;2023-11-21T15:43:41;8.70;99.90
12015;DHT22;6066;48.138;16.402;2023-11-21T15:46:08;8.70;99.90
12015;DHT22;6066;48.138;16.402;2023-11-21T15:48:35;8.60;99.90